createdAt,value
2023-02-01T00:00:22.685Z,97208.33
2023-02-01T00:03:45.843Z,97205.75
2023-02-01T00:06:49.083Z,97197.59
2023-02-01T00:09:51.955Z,97192.13
2023-02-01T00:12:54.970Z,97198.83
2023-02-01T00:16:26.312Z,97202.19
2023-02-01T00:19:29.199Z,97206.05
2023-02-01T00:22:32.156Z,97206.31
2023-02-01T00:25:35.037Z,97200.60
2023-02-01T00:28:37.882Z,97204.15
2023-02-01T00:31:41.420Z,97204.02
2023-02-01T00:34:44.520Z,97202.00
2023-02-01T00:37:47.622Z,97189.56
2023-02-01T00:40:50.466Z,97188.38
2023-02-01T00:43:54.116Z,97191.65
2023-02-01T00:46:56.998Z,97196.34
2023-02-01T00:49:59.836Z,97192.63
2023-02-01T00:53:03.036Z,97195.41
2023-02-01T00:56:06.342Z,97200.03
2023-02-01T00:59:12.911Z,97192.02
2023-02-01T01:02:15.996Z,97185.16
2023-02-01T01:05:19.246Z,97181.86
2023-02-01T01:08:22.094Z,97182.53
2023-02-01T01:11:27.652Z,97190.77
2023-02-01T01:14:31.758Z,97204.55
2023-02-01T01:17:34.723Z,97187.58
2023-02-01T01:20:40.365Z,97182.76
2023-02-01T01:23:44.360Z,97178.80
2023-02-01T01:26:47.298Z,97175.96
2023-02-01T01:29:51.237Z,97180.21
2023-02-01T01:32:54.280Z,97168.70
2023-02-01T01:35:57.154Z,97171.11
2023-02-01T01:39:00.036Z,97173.39
2023-02-01T01:42:02.974Z,97179.64
2023-02-01T01:45:31.476Z,97174.45
2023-02-01T01:48:34.371Z,97175.70
2023-02-01T01:51:44.838Z,97168.86
2023-02-01T01:54:52.523Z,97170.70
2023-02-01T01:58:01.788Z,97170.94
2023-02-01T02:01:04.773Z,97171.19
2023-02-01T02:04:07.930Z,97165.58
2023-02-01T02:07:29.762Z,97165.42
2023-02-01T02:10:51.527Z,97158.04
2023-02-01T02:13:57.940Z,97159.00
2023-02-01T02:17:35.052Z,97166.20
2023-02-01T02:20:54.627Z,97162.87
2023-02-01T02:24:09.787Z,97161.26
2023-02-01T02:27:26.673Z,97167.10
2023-02-01T02:30:49.705Z,97169.58
2023-02-01T02:34:11.550Z,97170.78
2023-02-01T02:37:36.505Z,97179.52
2023-02-01T02:40:58.598Z,97184.34
2023-02-01T02:44:26.737Z,97187.55
2023-02-01T02:47:51.790Z,97224.75
2023-02-01T02:51:27.129Z,97239.66
2023-02-01T02:54:47.440Z,97278.58
2023-02-01T02:58:10.537Z,97268.03
2023-02-01T03:01:32.248Z,97258.39
2023-02-01T03:04:35.229Z,97255.27
2023-02-01T03:07:50.844Z,97250.48
2023-02-01T03:11:09.828Z,97248.27
2023-02-01T03:14:15.196Z,97241.59
2023-02-01T03:17:27.459Z,97239.48
2023-02-01T03:20:31.254Z,97238.47
2023-02-01T03:23:37.995Z,97236.66
2023-02-01T03:26:49.487Z,97233.77
2023-02-01T03:30:08.781Z,97238.65
2023-02-01T03:33:24.797Z,97235.11
2023-02-01T03:36:38.640Z,97237.77
2023-02-01T03:40:09.153Z,97234.79
2023-02-01T03:43:15.640Z,97225.91
2023-02-01T03:46:25.992Z,97225.00
2023-02-01T03:49:36.586Z,97224.30
2023-02-01T03:52:54.470Z,97232.77
2023-02-01T03:55:58.249Z,97231.95
2023-02-01T03:59:01.379Z,97231.95
2023-02-01T04:02:04.290Z,97238.98
2023-02-01T04:05:07.590Z,97235.44
2023-02-01T04:08:10.467Z,97233.77
2023-02-01T04:11:13.358Z,97231.49
2023-02-01T04:14:16.305Z,97233.71
2023-02-01T04:17:19.762Z,97237.59
2023-02-01T04:20:22.956Z,97235.98
2023-02-01T04:23:25.940Z,97244.64
2023-02-01T04:26:28.871Z,97242.33
2023-02-01T04:29:31.735Z,97244.02
2023-02-01T04:32:34.603Z,97249.66
2023-02-01T04:35:37.453Z,97258.91
2023-02-01T04:38:40.378Z,97257.08
2023-02-01T04:41:43.291Z,97255.27
2023-02-01T04:44:46.235Z,97258.85
2023-02-01T04:47:49.998Z,97261.59
2023-02-01T04:50:53.030Z,97260.60
2023-02-01T04:53:56.871Z,97260.77
2023-02-01T04:56:59.931Z,97263.70
2023-02-01T05:00:03.070Z,97261.97
2023-02-01T05:03:06.672Z,97266.84
2023-02-01T05:06:09.580Z,97265.46
2023-02-01T05:09:12.665Z,97262.17
2023-02-01T05:12:34.316Z,97267.20
2023-02-01T05:15:37.518Z,97263.75
2023-02-01T05:18:44.366Z,97259.26
2023-02-01T05:21:47.288Z,97253.73
2023-02-01T05:24:50.214Z,97257.92
2023-02-01T05:27:55.004Z,97257.95
2023-02-01T05:30:58.023Z,97260.86
2023-02-01T05:34:01.054Z,97258.80
2023-02-01T05:37:04.203Z,97251.56
2023-02-01T05:40:07.897Z,97250.29
2023-02-01T05:43:10.918Z,97247.60
2023-02-01T05:46:14.551Z,97244.48
2023-02-01T05:49:17.592Z,97242.16
2023-02-01T05:52:20.614Z,97236.39
2023-02-01T05:55:23.502Z,97233.60
2023-02-01T05:58:27.004Z,97237.71
2023-02-01T06:01:29.885Z,97239.14
2023-02-01T06:04:32.696Z,97241.66
2023-02-01T06:07:35.674Z,97238.17
2023-02-01T06:10:38.553Z,97240.98
2023-02-01T06:13:41.498Z,97241.30
2023-02-01T06:16:46.652Z,97245.21
2023-02-01T06:19:49.617Z,97242.83
2023-02-01T06:22:53.630Z,97239.58
2023-02-01T06:26:05.145Z,97233.68
2023-02-01T06:29:08.767Z,97231.00
2023-02-01T06:32:11.836Z,97231.71
2023-02-01T06:35:17.802Z,97232.54
2023-02-01T06:38:20.992Z,97234.94
2023-02-01T06:41:24.635Z,97237.47
2023-02-01T06:44:27.488Z,97235.98
2023-02-01T06:47:30.439Z,97237.67
2023-02-01T06:50:34.209Z,97233.56
2023-02-01T06:53:37.060Z,97238.14
2023-02-01T06:56:40.053Z,97232.87
2023-02-01T06:59:43.051Z,97232.58
2023-02-01T07:02:45.948Z,97230.81
2023-02-01T07:05:49.242Z,97225.44
2023-02-01T07:08:52.421Z,97226.06
2023-02-01T07:11:55.371Z,97230.91
2023-02-01T07:14:58.354Z,97226.04
2023-02-01T07:18:01.223Z,97228.27
2023-02-01T07:21:04.408Z,97228.27
2023-02-01T07:24:07.501Z,97223.79
2023-02-01T07:27:10.431Z,97222.48
2023-02-01T07:30:13.834Z,97225.17
2023-02-01T07:33:16.625Z,97227.89
2023-02-01T07:36:20.766Z,97225.47
2023-02-01T07:39:23.911Z,97223.87
2023-02-01T07:42:26.825Z,97224.33
2023-02-01T07:45:29.707Z,97220.09
2023-02-01T07:48:34.875Z,97223.96
2023-02-01T07:51:37.729Z,97223.77
2023-02-01T07:54:40.597Z,97217.73
2023-02-01T07:57:43.400Z,97222.72
2023-02-01T08:01:05.185Z,97217.23
2023-02-01T08:04:13.704Z,97218.90
2023-02-01T08:07:16.538Z,97214.56
2023-02-01T08:10:20.425Z,97218.29
2023-02-01T08:13:23.301Z,97222.71
2023-02-01T08:16:26.803Z,97218.30
2023-02-01T08:19:29.670Z,97220.92
2023-02-01T08:22:33.545Z,97222.13
2023-02-01T08:25:37.230Z,97223.83
2023-02-01T08:28:41.640Z,97220.02
2023-02-01T08:31:44.853Z,97210.27
2023-02-01T08:34:47.893Z,97208.43
2023-02-01T08:37:51.743Z,97210.64
2023-02-01T08:40:54.720Z,97207.83
2023-02-01T08:43:58.673Z,97206.81
2023-02-01T08:47:02.193Z,97200.50
2023-02-01T08:50:05.419Z,97201.31
2023-02-01T08:53:08.242Z,97198.98
2023-02-01T08:56:13.310Z,97200.41
2023-02-01T08:59:16.186Z,97199.79
2023-02-01T09:02:19.723Z,97202.86
2023-02-01T09:05:24.257Z,97202.11
2023-02-01T09:08:27.076Z,97202.88
2023-02-01T09:11:29.933Z,97196.77
2023-02-01T09:14:32.751Z,97193.46
2023-02-01T09:17:36.111Z,97188.50
2023-02-01T09:20:38.939Z,97185.35
2023-02-01T09:23:42.027Z,97191.69
2023-02-01T09:26:45.472Z,97180.52
2023-02-01T09:29:53.375Z,97178.18
2023-02-01T09:32:56.208Z,97180.57
2023-02-01T09:36:05.149Z,97177.58
2023-02-01T09:39:07.999Z,97181.97
2023-02-01T09:42:46.961Z,97183.07
2023-02-01T09:45:56.968Z,97180.01
2023-02-01T09:49:05.052Z,97177.14
2023-02-01T09:52:09.471Z,97166.19
2023-02-01T09:55:21.872Z,97165.49
2023-02-01T09:58:35.057Z,97165.82
2023-02-01T10:01:38.964Z,97165.14
2023-02-01T10:04:42.186Z,97160.54
2023-02-01T10:07:55.061Z,97155.73
2023-02-01T10:11:18.568Z,97151.97
2023-02-01T10:14:33.727Z,97151.67
2023-02-01T10:18:01.396Z,97146.38
2023-02-01T10:21:16.560Z,97142.77
2023-02-01T10:24:38.105Z,97138.60
2023-02-01T10:27:41.597Z,97139.03
2023-02-01T10:30:47.754Z,97128.70
2023-02-01T10:33:54.001Z,97134.27
2023-02-01T10:37:25.871Z,97127.35
2023-02-01T10:40:29.359Z,97121.27
2023-02-01T10:43:32.642Z,97119.27
2023-02-01T10:46:35.892Z,97125.12
2023-02-01T10:49:56.199Z,97120.66
2023-02-01T10:53:05.759Z,97120.59
2023-02-01T10:56:10.677Z,97115.75
2023-02-01T10:59:24.761Z,97115.47
2023-02-01T11:02:32.586Z,97115.34
2023-02-01T11:05:46.466Z,97110.38
2023-02-01T11:08:52.840Z,97108.27
2023-02-01T11:11:58.883Z,97106.52
2023-02-01T11:15:23.844Z,97104.86
2023-02-01T11:18:30.149Z,97103.04
2023-02-01T11:21:34.662Z,97090.95
2023-02-01T11:24:39.382Z,97098.02
2023-02-01T11:27:53.044Z,97093.63
2023-02-01T11:30:59.916Z,97089.85
2023-02-01T11:34:22.387Z,97093.37
2023-02-01T11:37:36.083Z,97093.12
2023-02-01T11:40:39.659Z,97090.05
2023-02-01T11:43:54.789Z,97089.98
2023-02-01T11:47:18.367Z,97084.14
2023-02-01T11:50:59.625Z,97082.58
2023-02-01T11:54:34.519Z,97084.37
2023-02-01T11:57:49.487Z,97081.13
2023-02-01T12:01:11.525Z,97073.52
2023-02-01T12:04:42.535Z,97070.13
2023-02-01T12:08:00.532Z,97065.08
2023-02-01T12:11:26.101Z,97058.56
2023-02-01T12:14:53.664Z,97058.11
2023-02-01T12:18:13.524Z,97053.79
2023-02-01T12:21:35.101Z,97051.45
2023-02-01T12:25:03.060Z,97052.40
2023-02-01T12:28:14.843Z,97050.71
2023-02-01T12:31:36.189Z,97045.45
2023-02-01T12:35:07.912Z,97043.92
2023-02-01T12:38:22.961Z,97043.63
2023-02-01T12:41:31.888Z,97047.05
2023-02-01T12:44:57.637Z,97047.92
2023-02-01T12:48:19.542Z,97043.96
2023-02-01T12:51:28.578Z,97038.73
2023-02-01T12:54:46.800Z,97034.34
2023-02-01T12:58:24.925Z,97030.94
2023-02-01T13:01:51.894Z,97026.23
2023-02-01T13:05:00.036Z,97030.96
2023-02-01T13:08:17.430Z,97024.67
2023-02-01T13:11:28.528Z,97019.25
2023-02-01T13:14:51.553Z,97020.13
2023-02-01T13:17:58.941Z,97019.23
2023-02-01T13:21:10.133Z,97019.10
2023-02-01T13:24:43.920Z,97011.05
2023-02-01T13:27:47.761Z,97007.98
2023-02-01T13:31:15.854Z,97001.67
2023-02-01T13:34:55.277Z,96995.00
2023-02-01T13:38:19.961Z,96988.57
2023-02-01T13:41:30.992Z,96984.86
2023-02-01T13:44:41.857Z,96984.09
2023-02-01T13:47:53.906Z,96988.39
2023-02-01T13:50:59.584Z,96989.00
2023-02-01T13:54:02.876Z,96992.52
2023-02-01T13:57:15.665Z,96988.84
2023-02-01T14:00:24.949Z,96986.71
2023-02-01T14:03:46.248Z,96992.73
2023-02-01T14:06:54.342Z,96999.69
2023-02-01T14:09:57.366Z,96996.79
2023-02-01T14:13:14.645Z,96995.41
2023-02-01T14:16:18.007Z,96988.55
2023-02-01T14:19:26.745Z,96990.56
2023-02-01T14:22:40.685Z,96995.55
2023-02-01T14:25:45.763Z,96995.09
2023-02-01T14:29:20.823Z,96998.55
2023-02-01T14:32:26.740Z,97005.84
2023-02-01T14:35:29.705Z,97005.05
2023-02-01T14:38:35.663Z,97008.30
2023-02-01T14:41:48.138Z,97009.38
2023-02-01T14:44:59.562Z,97009.59
2023-02-01T14:48:06.012Z,97009.44
2023-02-01T14:51:10.228Z,97016.48
2023-02-01T14:54:14.995Z,97017.59
2023-02-01T14:57:21.629Z,97017.23
2023-02-01T15:00:28.339Z,97027.46
2023-02-01T15:04:00.942Z,97019.48
2023-02-01T15:07:12.884Z,97024.65
2023-02-01T15:10:15.723Z,97023.41
2023-02-01T15:13:24.502Z,97024.64
2023-02-01T15:16:28.160Z,97033.93
2023-02-01T15:19:31.806Z,97033.60
2023-02-01T15:22:34.695Z,97034.41
2023-02-01T15:25:39.907Z,97022.86
2023-02-01T15:28:42.933Z,97028.45
2023-02-01T15:31:51.290Z,97036.12
2023-02-01T15:34:54.314Z,97034.85
2023-02-01T15:38:40.462Z,97046.48
2023-02-01T15:41:45.119Z,97045.05
2023-02-01T15:44:48.156Z,97048.61
2023-02-01T15:47:53.205Z,97048.38
2023-02-01T15:50:56.953Z,97052.30
2023-02-01T15:54:12.245Z,97061.69
2023-02-01T15:57:21.829Z,97064.23
2023-02-01T16:00:29.668Z,97068.77
2023-02-01T16:03:43.107Z,97072.50
2023-02-01T16:06:49.478Z,97075.77
2023-02-01T16:09:58.152Z,97086.19
2023-02-01T16:13:01.413Z,97089.23
2023-02-01T16:16:09.110Z,97092.35
2023-02-01T16:19:12.143Z,97096.92
2023-02-01T16:22:15.134Z,97095.71
2023-02-01T16:25:18.033Z,97101.38
2023-02-01T16:28:20.911Z,97099.31
2023-02-01T16:31:28.653Z,97104.42
2023-02-01T16:34:31.892Z,97098.92
2023-02-01T16:37:37.546Z,97102.39
2023-02-01T16:40:44.454Z,97096.60
2023-02-01T16:43:52.054Z,97089.40
2023-02-01T16:46:55.086Z,97092.29
2023-02-01T16:49:57.908Z,97088.75
2023-02-01T16:53:02.564Z,97092.46
2023-02-01T16:56:18.817Z,97090.47
2023-02-01T16:59:21.654Z,97092.58
2023-02-01T17:02:24.809Z,97094.70
2023-02-01T17:05:28.147Z,97099.18
2023-02-01T17:08:35.531Z,97100.65
2023-02-01T17:11:38.875Z,97093.56
2023-02-01T17:14:42.853Z,97093.09
2023-02-01T17:17:45.853Z,97092.11
2023-02-01T17:20:49.114Z,97099.25
2023-02-01T17:23:54.153Z,97098.43
2023-02-01T17:26:57.785Z,97095.71
2023-02-01T17:30:02.161Z,97100.82
2023-02-01T17:33:20.621Z,97091.33
2023-02-01T17:36:25.037Z,97086.45
2023-02-01T17:39:46.708Z,97082.27
2023-02-01T17:42:50.398Z,97085.93
2023-02-01T17:46:04.097Z,97083.02
2023-02-01T17:49:07.266Z,97075.88
2023-02-01T17:52:17.529Z,97077.02
2023-02-01T17:55:24.709Z,97079.23
2023-02-01T17:58:30.680Z,97083.27
2023-02-01T18:01:33.568Z,97079.56
2023-02-01T18:04:37.943Z,97084.09
2023-02-01T18:07:40.787Z,97081.21
2023-02-01T18:10:44.520Z,97077.20
2023-02-01T18:13:48.838Z,97085.26
2023-02-01T18:16:51.810Z,97082.02
2023-02-01T18:19:54.819Z,97075.73
2023-02-01T18:22:57.837Z,97077.41
2023-02-01T18:26:01.368Z,97081.09
2023-02-01T18:29:04.404Z,97077.84
2023-02-01T18:32:09.604Z,97076.95
2023-02-01T18:35:24.540Z,97074.73
2023-02-01T18:38:27.612Z,97073.50
2023-02-01T18:41:30.798Z,97063.25
2023-02-01T18:44:34.055Z,97060.16
2023-02-01T18:47:36.941Z,97049.63
2023-02-01T18:50:42.216Z,97043.25
2023-02-01T18:53:45.353Z,97046.98
2023-02-01T18:56:48.371Z,97036.74
2023-02-01T18:59:51.443Z,97031.02
2023-02-01T19:02:54.662Z,97026.39
2023-02-01T19:05:58.635Z,97018.80
2023-02-01T19:09:01.498Z,97014.70
2023-02-01T19:12:05.058Z,97003.16
2023-02-01T19:15:13.001Z,96996.85
2023-02-01T19:18:20.360Z,96999.29
2023-02-01T19:21:23.282Z,96992.85
2023-02-01T19:24:28.272Z,96989.86
2023-02-01T19:27:31.153Z,96988.95
2023-02-01T19:30:34.206Z,96992.30
2023-02-01T19:33:37.279Z,96994.20
2023-02-01T19:36:42.600Z,96993.40
2023-02-01T19:39:46.033Z,96988.92
2023-02-01T19:42:49.804Z,96989.34
2023-02-01T19:45:54.020Z,96980.73
2023-02-01T19:48:57.007Z,96980.02
2023-02-01T19:51:59.973Z,96974.46
2023-02-01T19:55:05.162Z,96979.85
2023-02-01T19:58:08.952Z,96976.98
2023-02-01T20:01:11.928Z,96970.42
2023-02-01T20:04:16.759Z,96969.32
2023-02-01T20:07:19.886Z,96957.34
2023-02-01T20:10:23.034Z,96955.89
2023-02-01T20:13:25.928Z,96945.44
2023-02-01T20:16:28.977Z,96940.86
2023-02-01T20:19:32.786Z,96934.70
2023-02-01T20:22:35.681Z,96933.41
2023-02-01T20:25:39.867Z,96927.71
2023-02-01T20:28:42.926Z,96929.25
2023-02-01T20:31:46.807Z,96927.67
2023-02-01T20:34:53.560Z,96928.45
2023-02-01T20:37:59.022Z,96931.11
2023-02-01T20:41:06.320Z,96927.36
2023-02-01T20:44:09.634Z,96923.80
2023-02-01T20:47:12.760Z,96922.89
2023-02-01T20:50:16.493Z,96916.41
2023-02-01T20:53:26.644Z,96918.63
2023-02-01T20:56:30.115Z,96909.27
2023-02-01T20:59:33.189Z,96897.18
2023-02-01T21:02:37.182Z,96889.88
2023-02-01T21:05:40.314Z,96890.16
2023-02-01T21:08:43.462Z,96890.98
2023-02-01T21:11:46.523Z,96886.22
2023-02-01T21:14:49.628Z,96881.59
2023-02-01T21:17:52.683Z,96877.43
2023-02-01T21:20:55.844Z,96875.12
2023-02-01T21:23:59.946Z,96871.34
2023-02-01T21:27:03.134Z,96873.47
2023-02-01T21:30:07.275Z,96869.00
2023-02-01T21:33:10.548Z,96860.05
2023-02-01T21:36:19.005Z,96867.20
2023-02-01T21:39:22.056Z,96885.35
2023-02-01T21:42:26.822Z,96886.44
2023-02-01T21:45:29.732Z,96884.92
2023-02-01T21:49:03.859Z,96877.45
2023-02-01T21:51:56.012Z,96871.33
2023-02-01T21:54:59.872Z,96865.46
2023-02-01T21:58:02.733Z,96859.87
2023-02-01T22:01:05.595Z,96859.64
2023-02-01T22:04:09.009Z,96856.89
2023-02-01T22:07:12.548Z,96870.41
2023-02-01T22:10:15.340Z,96873.56
2023-02-01T22:13:18.238Z,96875.40
2023-02-01T22:16:21.709Z,96867.17
2023-02-01T22:19:24.757Z,96864.27
2023-02-01T22:22:27.669Z,96865.93
2023-02-01T22:25:30.592Z,96870.62
2023-02-01T22:28:33.908Z,96872.02
2023-02-01T22:31:36.826Z,96872.38
2023-02-01T22:34:40.376Z,96878.74
2023-02-01T22:37:44.474Z,96878.96
2023-02-01T22:41:01.353Z,96876.17
2023-02-01T22:44:04.322Z,96880.22
2023-02-01T22:47:07.251Z,96881.81
2023-02-01T22:50:11.496Z,96877.09
2023-02-01T22:53:15.199Z,96868.70
2023-02-01T22:56:18.102Z,96869.36
2023-02-01T22:59:21.024Z,96873.62
2023-02-01T23:02:23.936Z,96881.58
2023-02-01T23:05:26.874Z,96880.98
2023-02-01T23:08:29.768Z,96881.11
2023-02-01T23:11:33.035Z,96882.48
2023-02-01T23:14:55.795Z,96890.80
2023-02-01T23:17:58.624Z,96890.88
2023-02-01T23:21:15.637Z,96892.36
2023-02-01T23:24:18.627Z,96887.45
2023-02-01T23:27:21.495Z,96899.25
2023-02-01T23:30:24.498Z,96906.77
2023-02-01T23:33:28.138Z,96916.30
2023-02-01T23:36:32.977Z,96913.86
2023-02-01T23:39:36.783Z,96917.30
2023-02-01T23:42:39.636Z,96915.98
2023-02-01T23:45:42.516Z,96926.21
2023-02-01T23:48:46.874Z,96925.92
2023-02-01T23:51:53.189Z,96924.33
2023-02-01T23:54:56.015Z,96927.10
2023-02-01T23:57:58.836Z,96929.69
